createdAt,value
2022-08-01T00:00:05.003Z,80.83
2022-08-01T00:02:32.142Z,81.18
2022-08-01T00:04:58.912Z,80.89
2022-08-01T00:07:25.363Z,81.22
2022-08-01T00:09:51.858Z,80.95
2022-08-01T00:12:18.708Z,81.22
2022-08-01T00:14:45.172Z,81.26
2022-08-01T00:17:11.685Z,81.17
2022-08-01T00:19:38.161Z,81.05
2022-08-01T00:22:05.023Z,81.00
2022-08-01T00:24:31.648Z,80.75
2022-08-01T00:26:58.255Z,80.83
2022-08-01T00:30:11.862Z,80.94
2022-08-01T00:32:11.222Z,80.92
2022-08-01T00:34:37.761Z,80.70
2022-08-01T00:37:04.430Z,80.52
2022-08-01T00:39:31.114Z,80.64
2022-08-01T00:41:59.458Z,80.79
2022-08-01T00:44:27.836Z,80.85
2022-08-01T00:46:54.427Z,80.56
2022-08-01T00:49:21.394Z,80.44
2022-08-01T00:51:48.103Z,80.50
2022-08-01T00:54:16.599Z,80.67
2022-08-01T00:56:44.189Z,80.41
2022-08-01T00:59:14.155Z,80.71
2022-08-01T01:01:46.485Z,80.73
2022-08-01T01:04:13.783Z,80.83
2022-08-01T01:07:06.212Z,80.87
2022-08-01T01:10:10.467Z,80.69
2022-08-01T01:13:02.264Z,80.86
2022-08-01T01:15:38.003Z,80.81
2022-08-01T01:18:10.410Z,80.62
2022-08-01T01:20:39.736Z,80.91
2022-08-01T01:23:33.858Z,80.73
2022-08-01T01:26:27.729Z,80.78
2022-08-01T01:29:16.705Z,80.58
2022-08-01T01:31:54.641Z,80.65
2022-08-01T01:34:23.126Z,80.61
2022-08-01T01:36:53.061Z,80.72
2022-08-01T01:39:21.745Z,81.05
2022-08-01T01:41:50.481Z,80.69
2022-08-01T01:44:18.533Z,81.13
2022-08-01T01:46:47.360Z,81.08
2022-08-01T01:49:16.328Z,81.08
2022-08-01T01:51:49.374Z,81.02
2022-08-01T01:54:36.003Z,81.23
2022-08-01T01:57:06.082Z,80.95
2022-08-01T01:59:35.930Z,81.24
2022-08-01T02:02:06.817Z,81.06
2022-08-01T02:04:37.192Z,80.86
2022-08-01T02:07:05.234Z,80.97
2022-08-01T02:09:32.982Z,80.78
2022-08-01T02:12:07.786Z,81.00
2022-08-01T02:14:38.872Z,80.90
2022-08-01T02:17:05.613Z,80.77
2022-08-01T02:19:37.925Z,80.78
2022-08-01T02:22:41.675Z,80.91
2022-08-01T02:25:40.249Z,81.00
2022-08-01T02:28:32.841Z,80.80
2022-08-01T02:31:05.527Z,81.17
2022-08-01T02:33:38.761Z,81.17
2022-08-01T02:36:32.512Z,80.97
2022-08-01T02:38:57.730Z,80.92
2022-08-01T02:41:28.588Z,80.83
2022-08-01T02:44:00.290Z,81.05
2022-08-01T02:46:39.976Z,80.99
2022-08-01T02:49:10.168Z,81.29
2022-08-01T02:51:38.697Z,81.31
2022-08-01T02:54:07.962Z,81.66
2022-08-01T02:56:36.219Z,81.05
2022-08-01T02:59:13.652Z,81.13
2022-08-01T03:01:43.732Z,80.99
2022-08-01T03:04:11.576Z,81.15
2022-08-01T03:06:39.269Z,81.48
2022-08-01T03:09:08.833Z,81.05
2022-08-01T03:11:38.725Z,81.46
2022-08-01T03:14:10.089Z,81.37
2022-08-01T03:16:39.661Z,81.56
2022-08-01T03:19:08.620Z,81.84
2022-08-01T03:21:36.429Z,82.09
2022-08-01T03:24:04.944Z,81.93
2022-08-01T03:26:35.195Z,81.88
2022-08-01T03:29:07.417Z,82.10
2022-08-01T03:31:39.095Z,82.52
2022-08-01T03:34:08.162Z,82.39
2022-08-01T03:36:43.729Z,82.13
2022-08-01T03:39:12.539Z,82.10
2022-08-01T03:41:44.499Z,81.96
2022-08-01T03:44:21.624Z,82.02
2022-08-01T03:46:51.085Z,82.18
2022-08-01T03:49:39.573Z,82.31
2022-08-01T03:52:09.030Z,82.00
2022-08-01T03:54:43.578Z,82.32
2022-08-01T03:57:34.905Z,82.13
2022-08-01T04:00:00.100Z,81.76
2022-08-01T04:02:28.211Z,81.83
2022-08-01T04:04:56.262Z,82.10
2022-08-01T04:07:28.120Z,82.40
2022-08-01T04:09:56.189Z,81.99
2022-08-01T04:12:22.908Z,81.87
2022-08-01T04:14:49.860Z,81.74
2022-08-01T04:17:17.555Z,81.76
2022-08-01T04:19:45.197Z,81.81
2022-08-01T04:22:14.204Z,81.90
2022-08-01T04:24:43.293Z,81.59
2022-08-01T04:27:14.239Z,81.62
2022-08-01T04:29:43.361Z,81.87
2022-08-01T04:32:13.716Z,81.81
2022-08-01T04:34:42.753Z,81.42
2022-08-01T04:37:12.291Z,81.40
2022-08-01T04:39:51.080Z,80.57
2022-08-01T04:42:18.607Z,80.47
2022-08-01T04:44:55.699Z,80.95
2022-08-01T04:47:24.212Z,80.82
2022-08-01T04:49:51.083Z,80.71
2022-08-01T04:52:22.940Z,81.32
2022-08-01T04:54:51.166Z,80.83
2022-08-01T04:57:17.593Z,80.73
2022-08-01T04:59:45.416Z,80.44
2022-08-01T05:02:17.548Z,80.09
2022-08-01T05:04:45.176Z,79.95
2022-08-01T05:07:13.262Z,79.99
2022-08-01T05:09:47.362Z,79.89
2022-08-01T05:12:14.277Z,80.05
2022-08-01T05:14:41.270Z,79.88
2022-08-01T05:17:09.317Z,80.11
2022-08-01T05:19:37.932Z,79.93
2022-08-01T05:22:07.043Z,79.63
2022-08-01T05:24:40.200Z,79.51
2022-08-01T05:27:13.587Z,79.79
2022-08-01T05:29:44.719Z,79.32
2022-08-01T05:32:11.779Z,79.32
2022-08-01T05:34:38.276Z,79.31
2022-08-01T05:37:04.783Z,79.41
2022-08-01T05:39:31.715Z,79.14
2022-08-01T05:41:58.188Z,78.47
2022-08-01T05:44:25.206Z,78.99
2022-08-01T05:46:52.624Z,78.85
2022-08-01T05:49:19.176Z,78.54
2022-08-01T05:51:45.733Z,78.18
2022-08-01T05:54:12.324Z,78.23
2022-08-01T05:56:38.796Z,78.35
2022-08-01T05:59:05.271Z,77.19
2022-08-01T06:01:31.810Z,76.98
2022-08-01T06:03:58.295Z,77.20
2022-08-01T06:06:25.381Z,77.49
2022-08-01T06:08:52.801Z,77.65
2022-08-01T06:11:19.271Z,77.44
2022-08-01T06:13:48.866Z,77.29
2022-08-01T06:16:16.436Z,77.04
2022-08-01T06:18:42.963Z,76.79
2022-08-01T06:21:09.819Z,76.46
2022-08-01T06:23:36.304Z,75.74
2022-08-01T06:26:02.964Z,75.85
2022-08-01T06:28:30.141Z,75.29
2022-08-01T06:30:56.965Z,74.57
2022-08-01T06:33:23.980Z,74.29
2022-08-01T06:35:50.432Z,74.30
2022-08-01T06:38:17.147Z,74.71
2022-08-01T06:40:43.718Z,73.87
2022-08-01T06:43:12.312Z,73.45
2022-08-01T06:45:40.149Z,71.76
2022-08-01T06:48:06.760Z,71.45
2022-08-01T06:50:33.710Z,71.63
2022-08-01T06:53:00.157Z,71.52
2022-08-01T06:55:26.629Z,71.25
2022-08-01T06:57:53.707Z,70.61
2022-08-01T07:00:23.447Z,70.49
2022-08-01T07:02:55.085Z,69.47
2022-08-01T07:05:21.729Z,69.67
2022-08-01T07:07:48.226Z,69.79
2022-08-01T07:10:14.866Z,69.41
2022-08-01T07:12:41.988Z,69.52
2022-08-01T07:15:10.537Z,69.16
2022-08-01T07:17:41.644Z,68.46
2022-08-01T07:20:10.721Z,68.44
2022-08-01T07:22:38.437Z,68.61
2022-08-01T07:25:08.393Z,68.76
2022-08-01T07:27:35.572Z,68.13
2022-08-01T07:30:02.614Z,66.79
2022-08-01T07:32:30.282Z,65.94
2022-08-01T07:34:57.343Z,66.14
2022-08-01T07:37:47.728Z,65.49
2022-08-01T07:40:11.820Z,65.45
2022-08-01T07:42:38.601Z,65.60
2022-08-01T07:45:05.421Z,66.10
2022-08-01T07:47:31.922Z,66.24
2022-08-01T07:50:02.180Z,66.42
2022-08-01T07:52:28.788Z,67.00
2022-08-01T07:54:55.854Z,67.67
2022-08-01T07:57:22.375Z,67.13
2022-08-01T07:59:49.176Z,67.04
2022-08-01T08:02:15.750Z,66.86
2022-08-01T08:04:46.971Z,66.38
2022-08-01T08:07:15.275Z,66.13
2022-08-01T08:09:41.714Z,65.82
2022-08-01T08:12:08.885Z,65.52
2022-08-01T08:14:35.561Z,65.45
2022-08-01T08:17:03.166Z,64.22
2022-08-01T08:19:37.813Z,63.86
2022-08-01T08:22:04.830Z,64.63
2022-08-01T08:24:31.458Z,64.43
2022-08-01T08:26:59.996Z,64.98
2022-08-01T08:29:28.321Z,64.76
2022-08-01T08:31:55.739Z,64.45
2022-08-01T08:34:24.473Z,64.01
2022-08-01T08:36:51.543Z,62.13
2022-08-01T08:39:19.711Z,61.65
2022-08-01T08:41:49.690Z,61.84
2022-08-01T08:44:17.648Z,61.52
2022-08-01T08:46:49.517Z,61.29
2022-08-01T08:49:26.074Z,60.66
2022-08-01T08:51:54.150Z,59.40
2022-08-01T08:54:29.137Z,60.34
2022-08-01T08:57:00.851Z,61.12
2022-08-01T08:59:29.249Z,61.43
2022-08-01T09:01:56.606Z,62.33
2022-08-01T09:04:26.344Z,60.71
2022-08-01T09:06:54.562Z,61.32
2022-08-01T09:09:21.112Z,61.49
2022-08-01T09:11:56.571Z,62.55
2022-08-01T09:14:27.177Z,62.05
2022-08-01T09:17:21.012Z,60.94
2022-08-01T09:19:54.853Z,61.33
2022-08-01T09:22:25.873Z,61.82
2022-08-01T09:25:10.218Z,61.49
2022-08-01T09:27:43.945Z,60.64
2022-08-01T09:30:12.822Z,59.13
2022-08-01T09:33:11.234Z,58.67
2022-08-01T09:35:55.517Z,59.25
2022-08-01T09:38:28.063Z,59.73
2022-08-01T09:40:58.617Z,60.63
2022-08-01T09:43:31.659Z,60.50
2022-08-01T09:45:59.249Z,58.16
2022-08-01T09:48:28.754Z,57.47
2022-08-01T09:51:04.398Z,57.56
2022-08-01T09:53:51.307Z,57.76
2022-08-01T09:56:21.066Z,56.86
2022-08-01T09:58:57.856Z,56.15
2022-08-01T10:01:25.742Z,56.25
2022-08-01T10:04:18.385Z,56.08
2022-08-01T10:06:50.206Z,56.14
2022-08-01T10:09:39.866Z,56.18
2022-08-01T10:12:09.147Z,55.80
2022-08-01T10:14:42.944Z,55.38
2022-08-01T10:17:19.862Z,56.00
2022-08-01T10:19:50.546Z,56.18
2022-08-01T10:22:19.184Z,56.93
2022-08-01T10:24:48.775Z,56.15
2022-08-01T10:27:21.545Z,56.43
2022-08-01T10:30:14.185Z,57.11
2022-08-01T10:32:50.717Z,56.18
2022-08-01T10:35:24.122Z,55.79
2022-08-01T10:38:06.172Z,56.42
2022-08-01T10:40:38.218Z,56.40
2022-08-01T10:43:07.248Z,55.90
2022-08-01T10:45:34.510Z,56.11
2022-08-01T10:48:10.780Z,57.73
2022-08-01T10:50:49.310Z,56.88
2022-08-01T10:53:23.961Z,56.53
2022-08-01T10:55:59.230Z,57.06
2022-08-01T10:58:42.260Z,57.34
2022-08-01T11:01:15.682Z,58.83
2022-08-01T11:04:01.420Z,59.83
2022-08-01T11:06:34.472Z,60.49
2022-08-01T11:09:36.116Z,60.18
2022-08-01T11:12:24.868Z,60.67
2022-08-01T11:15:02.418Z,60.18
2022-08-01T11:17:37.778Z,59.66
2022-08-01T11:20:15.890Z,58.91
2022-08-01T11:23:03.125Z,58.75
2022-08-01T11:26:05.344Z,58.91
2022-08-01T11:28:33.296Z,58.24
2022-08-01T11:31:10.793Z,56.84
2022-08-01T11:33:46.921Z,56.87
2022-08-01T11:36:14.144Z,56.89
2022-08-01T11:38:47.505Z,54.58
2022-08-01T11:41:38.399Z,54.96
2022-08-01T11:44:12.102Z,56.63
2022-08-01T11:47:08.989Z,55.72
2022-08-01T11:49:41.972Z,55.81
2022-08-01T11:52:11.338Z,55.46
2022-08-01T11:54:46.675Z,56.71
2022-08-01T11:57:41.185Z,56.92
2022-08-01T12:00:17.825Z,56.58
2022-08-01T12:02:46.721Z,57.01
2022-08-01T12:05:15.773Z,56.99
2022-08-01T12:07:45.764Z,56.24
2022-08-01T12:10:17.730Z,54.20
2022-08-01T12:12:52.271Z,54.76
2022-08-01T12:15:20.453Z,54.75
2022-08-01T12:17:57.945Z,52.03
2022-08-01T12:20:30.477Z,53.21
2022-08-01T12:23:03.127Z,53.67
2022-08-01T12:25:30.283Z,52.24
2022-08-01T12:28:04.405Z,52.04
2022-08-01T12:30:32.082Z,53.45
2022-08-01T12:32:59.080Z,52.86
2022-08-01T12:35:27.661Z,53.14
2022-08-01T12:37:55.278Z,54.10
2022-08-01T12:40:27.078Z,54.61
2022-08-01T12:42:56.537Z,54.00
2022-08-01T12:45:27.661Z,54.02
2022-08-01T12:47:56.046Z,54.42
2022-08-01T12:50:26.141Z,54.83
2022-08-01T12:52:53.363Z,54.45
2022-08-01T12:55:25.498Z,54.68
2022-08-01T12:58:06.864Z,55.42
2022-08-01T13:00:33.986Z,55.12
2022-08-01T13:03:03.491Z,55.86
2022-08-01T13:05:44.753Z,54.83
2022-08-01T13:08:13.649Z,55.13
2022-08-01T13:10:41.140Z,54.13
2022-08-01T13:13:08.070Z,54.43
2022-08-01T13:15:41.879Z,53.59
2022-08-01T13:18:27.755Z,54.55
2022-08-01T13:21:16.855Z,54.70
2022-08-01T13:24:13.950Z,53.82
2022-08-01T13:26:49.554Z,53.82
2022-08-01T13:29:18.679Z,53.07
2022-08-01T13:31:45.623Z,53.63
2022-08-01T13:34:12.784Z,53.16
2022-08-01T13:36:42.114Z,53.95
2022-08-01T13:39:31.995Z,53.60
2022-08-01T13:41:58.472Z,53.26
2022-08-01T13:44:24.971Z,53.08
2022-08-01T13:46:51.681Z,52.59
2022-08-01T13:49:19.217Z,52.90
2022-08-01T13:51:47.427Z,53.26
2022-08-01T13:54:14.819Z,53.82
2022-08-01T13:56:41.298Z,53.61
2022-08-01T13:59:07.834Z,53.27
2022-08-01T14:01:35.506Z,54.19
2022-08-01T14:04:03.017Z,54.43
2022-08-01T14:06:29.703Z,54.95
2022-08-01T14:08:56.208Z,54.97
2022-08-01T14:11:22.745Z,54.37
2022-08-01T14:13:49.264Z,53.92
2022-08-01T14:16:16.171Z,53.95
2022-08-01T14:18:44.256Z,53.77
2022-08-01T14:21:11.143Z,53.97
2022-08-01T14:23:37.830Z,54.08
2022-08-01T14:26:11.521Z,53.69
2022-08-01T14:28:40.041Z,53.96
2022-08-01T14:31:09.747Z,54.09
2022-08-01T14:33:37.400Z,53.78
2022-08-01T14:36:07.747Z,53.80
2022-08-01T14:38:51.236Z,53.32
2022-08-01T14:41:17.847Z,53.39
2022-08-01T14:43:44.321Z,53.41
2022-08-01T14:46:11.275Z,52.92
2022-08-01T14:48:37.815Z,52.22
2022-08-01T14:51:05.123Z,52.73
2022-08-01T14:53:35.687Z,50.77
2022-08-01T14:56:03.722Z,50.69
2022-08-01T14:58:30.298Z,51.02
2022-08-01T15:00:59.245Z,51.00
2022-08-01T15:03:26.251Z,49.37
2022-08-01T15:05:52.820Z,50.09
2022-08-01T15:08:20.155Z,50.12
2022-08-01T15:10:46.999Z,50.46
2022-08-01T15:13:13.483Z,50.43
2022-08-01T15:15:40.117Z,50.07
2022-08-01T15:18:06.877Z,49.75
2022-08-01T15:20:34.038Z,50.52
2022-08-01T15:23:00.633Z,50.68
2022-08-01T15:25:41.210Z,51.08
2022-08-01T15:28:11.794Z,50.32
2022-08-01T15:30:38.506Z,50.05
2022-08-01T15:33:05.204Z,49.58
2022-08-01T15:35:31.892Z,49.05
2022-08-01T15:37:58.767Z,49.81
2022-08-01T15:40:25.477Z,50.76
2022-08-01T15:42:53.258Z,50.48
2022-08-01T15:45:46.011Z,50.73
2022-08-01T15:48:08.712Z,50.17
2022-08-01T15:50:35.488Z,50.77
2022-08-01T15:53:02.152Z,51.00
2022-08-01T15:55:28.734Z,51.52
2022-08-01T15:57:55.610Z,52.18
2022-08-01T16:00:22.252Z,52.82
2022-08-01T16:02:48.865Z,52.96
2022-08-01T16:05:20.255Z,53.23
2022-08-01T16:07:59.516Z,53.46
2022-08-01T16:10:28.707Z,54.06
2022-08-01T16:12:55.304Z,52.19
2022-08-01T16:15:36.145Z,52.19
2022-08-01T16:18:05.501Z,51.84
2022-08-01T16:20:45.380Z,52.12
2022-08-01T16:23:14.787Z,52.41
2022-08-01T16:25:44.277Z,51.92
2022-08-01T16:28:11.033Z,51.24
2022-08-01T16:30:41.605Z,50.39
2022-08-01T16:33:20.631Z,50.83
2022-08-01T16:36:15.902Z,50.41
2022-08-01T16:38:44.801Z,50.43
2022-08-01T16:41:20.310Z,50.81
2022-08-01T16:43:54.465Z,51.11
2022-08-01T16:46:27.406Z,50.66
2022-08-01T16:48:54.340Z,50.25
2022-08-01T16:51:23.225Z,51.01
2022-08-01T16:53:49.748Z,51.06
2022-08-01T16:56:16.417Z,51.29
2022-08-01T16:58:48.677Z,51.55
2022-08-01T17:01:58.290Z,52.18
2022-08-01T17:04:07.891Z,51.33
2022-08-01T17:06:34.728Z,50.48
2022-08-01T17:09:02.750Z,50.41
2022-08-01T17:11:29.641Z,50.50
2022-08-01T17:13:56.569Z,50.80
2022-08-01T17:16:25.142Z,51.23
2022-08-01T17:18:54.089Z,49.87
2022-08-01T17:21:23.571Z,50.29
2022-08-01T17:23:50.135Z,50.16
2022-08-01T17:26:19.080Z,48.52
2022-08-01T17:28:48.917Z,49.35
2022-08-01T17:31:15.560Z,48.66
2022-08-01T17:33:54.358Z,48.53
2022-08-01T17:36:21.591Z,47.76
2022-08-01T17:38:48.442Z,48.86
2022-08-01T17:41:15.116Z,49.20
2022-08-01T17:43:44.329Z,49.43
2022-08-01T17:46:11.147Z,50.49
2022-08-01T17:48:40.629Z,50.41
2022-08-01T17:51:07.259Z,50.23
2022-08-01T17:53:34.065Z,50.12
2022-08-01T17:56:02.469Z,50.22
2022-08-01T17:58:45.062Z,49.49
2022-08-01T18:01:17.738Z,49.49
2022-08-01T18:03:45.110Z,49.84
2022-08-01T18:06:17.376Z,49.62
2022-08-01T18:08:50.227Z,50.13
2022-08-01T18:11:22.706Z,50.61
2022-08-01T18:13:52.449Z,50.12
2022-08-01T18:16:19.173Z,50.96
2022-08-01T18:18:45.680Z,50.85
2022-08-01T18:21:12.776Z,50.62
2022-08-01T18:23:39.692Z,51.17
2022-08-01T18:26:09.221Z,51.62
2022-08-01T18:28:42.028Z,51.56
2022-08-01T18:31:16.379Z,52.42
2022-08-01T18:33:43.292Z,52.77
2022-08-01T18:36:17.815Z,52.94
2022-08-01T18:38:56.249Z,53.52
2022-08-01T18:41:22.689Z,53.46
2022-08-01T18:43:49.277Z,53.11
2022-08-01T18:46:16.135Z,53.38
2022-08-01T18:48:42.670Z,52.77
2022-08-01T18:51:09.228Z,52.82
2022-08-01T18:53:39.503Z,52.71
2022-08-01T18:56:11.968Z,52.86
2022-08-01T18:58:40.130Z,53.12
2022-08-01T19:01:06.918Z,53.14
2022-08-01T19:03:34.646Z,53.38
2022-08-01T19:06:01.358Z,53.73
2022-08-01T19:08:27.855Z,53.42
2022-08-01T19:10:54.410Z,53.55
2022-08-01T19:13:20.864Z,53.97
2022-08-01T19:15:47.420Z,53.99
2022-08-01T19:18:15.620Z,54.27
2022-08-01T19:20:44.572Z,54.28
2022-08-01T19:23:30.165Z,54.44
2022-08-01T19:25:58.075Z,54.65
2022-08-01T19:28:26.777Z,54.84
2022-08-01T19:30:55.553Z,54.64
2022-08-01T19:33:22.379Z,55.06
2022-08-01T19:35:52.631Z,55.12
2022-08-01T19:38:22.302Z,55.20
2022-08-01T19:40:49.284Z,56.04
2022-08-01T19:43:17.694Z,55.94
2022-08-01T19:45:44.811Z,56.06
2022-08-01T19:48:14.900Z,55.83
2022-08-01T19:50:43.808Z,55.39
2022-08-01T19:53:12.109Z,55.49
2022-08-01T19:55:43.432Z,55.31
2022-08-01T19:58:28.148Z,55.29
2022-08-01T20:00:57.525Z,55.32
2022-08-01T20:03:24.926Z,55.38
2022-08-01T20:05:51.896Z,55.45
2022-08-01T20:08:20.780Z,55.52
2022-08-01T20:10:48.499Z,55.38
2022-08-01T20:13:16.070Z,55.55
2022-08-01T20:15:44.907Z,55.48
2022-08-01T20:18:20.426Z,55.85
2022-08-01T20:20:51.804Z,56.04
2022-08-01T20:23:23.546Z,56.26
2022-08-01T20:26:00.334Z,56.51
2022-08-01T20:28:29.044Z,56.81
2022-08-01T20:31:05.297Z,56.79
2022-08-01T20:33:39.959Z,57.36
2022-08-01T20:36:12.000Z,57.86
2022-08-01T20:38:56.642Z,58.20
2022-08-01T20:41:24.826Z,57.99
2022-08-01T20:43:59.506Z,58.34
2022-08-01T20:46:28.389Z,58.65
2022-08-01T20:48:57.745Z,58.90
2022-08-01T20:51:28.746Z,58.58
2022-08-01T20:53:56.081Z,59.16
2022-08-01T20:56:54.319Z,59.44
2022-08-01T20:59:54.938Z,59.57
2022-08-01T21:02:41.485Z,59.97
2022-08-01T21:05:12.623Z,60.37
2022-08-01T21:08:02.317Z,60.22
2022-08-01T21:10:33.752Z,60.46
2022-08-01T21:13:11.297Z,60.87
2022-08-01T21:16:07.420Z,60.76
2022-08-01T21:18:39.433Z,60.97
2022-08-01T21:21:14.577Z,61.48
2022-08-01T21:24:06.961Z,61.65
2022-08-01T21:26:46.087Z,62.11
2022-08-01T21:29:13.088Z,62.58
2022-08-01T21:31:41.426Z,62.09
2022-08-01T21:34:09.174Z,61.91
2022-08-01T21:36:43.637Z,62.35
2022-08-01T21:39:10.465Z,62.77
2022-08-01T21:42:03.294Z,62.61
2022-08-01T21:44:28.687Z,63.13
2022-08-01T21:46:59.869Z,63.52
2022-08-01T21:49:27.509Z,63.15
2022-08-01T21:52:00.074Z,60.87
2022-08-01T21:54:49.442Z,60.57
2022-08-01T21:57:54.946Z,60.70
2022-08-01T22:00:25.608Z,60.53
2022-08-01T22:03:01.929Z,60.19
2022-08-01T22:05:49.744Z,59.02
2022-08-01T22:08:24.368Z,58.80
2022-08-01T22:10:58.906Z,58.08
2022-08-01T22:13:25.650Z,57.14
2022-08-01T22:15:55.811Z,57.53
2022-08-01T22:18:23.150Z,56.88
2022-08-01T22:20:51.587Z,56.72
2022-08-01T22:23:22.054Z,56.60
2022-08-01T22:25:53.358Z,57.16
2022-08-01T22:28:20.549Z,57.40
2022-08-01T22:30:49.711Z,57.59
2022-08-01T22:33:17.867Z,57.10
2022-08-01T22:35:46.761Z,57.11
2022-08-01T22:38:14.071Z,57.36
2022-08-01T22:40:48.136Z,57.44
2022-08-01T22:43:24.132Z,57.13
2022-08-01T22:46:16.466Z,57.33
2022-08-01T22:48:51.532Z,57.44
2022-08-01T22:51:56.956Z,57.42
2022-08-01T22:54:33.905Z,57.44
2022-08-01T22:57:07.143Z,57.56
2022-08-01T22:59:42.395Z,57.78
2022-08-01T23:02:14.108Z,58.05
2022-08-01T23:04:49.438Z,58.43
2022-08-01T23:07:22.780Z,58.57
2022-08-01T23:09:54.673Z,58.77
2022-08-01T23:12:23.684Z,58.84
2022-08-01T23:14:52.982Z,59.23
2022-08-01T23:17:26.725Z,59.29
2022-08-01T23:19:58.665Z,59.63
2022-08-01T23:22:30.146Z,59.95
2022-08-01T23:25:04.257Z,59.74
2022-08-01T23:27:51.339Z,59.84
2022-08-01T23:30:29.512Z,59.96
2022-08-01T23:32:56.717Z,60.14
2022-08-01T23:35:24.282Z,60.40
2022-08-01T23:37:51.551Z,60.74
2022-08-01T23:40:19.089Z,61.27
2022-08-01T23:42:45.859Z,61.69
2022-08-01T23:45:12.434Z,61.82
2022-08-01T23:47:38.998Z,61.59
2022-08-01T23:50:07.693Z,61.52
2022-08-01T23:52:34.614Z,61.66
2022-08-01T23:55:14.969Z,61.63
2022-08-01T23:57:42.730Z,61.97
